This is the latest recevied weather packets stored in our database for station/object SQ6IUS-13. If no packets are shown the sender has not sent any weather packets the latest 10 day(s).
| Time | Temp. | Humidity | Pressure | Rain* | Wind** | Luminosity | Snow |
|---|---|---|---|---|---|---|---|
| 1777744508 | 22.78° C | 29% | 1019.1 hPa | - | - | - | - |
| 1777743610 | 25.56° C | 26% | 1019 hPa | - | - | - | - |
| 1777742712 | 26.11° C | 25% | 1019.1 hPa | - | - | - | - |
| 1777741814 | 27.22° C | 24% | 1019.3 hPa | - | - | - | - |
| 1777740915 | 28.89° C | 23% | 1019.4 hPa | - | - | - | - |
| 1777740016 | 28.89° C | 23% | 1019.6 hPa | - | - | - | - |
| 1777739118 | 30.56° C | 23% | 1019.7 hPa | - | - | - | - |
| 1777738219 | 31.11° C | 21% | 1019.9 hPa | - | - | - | - |
| 1777737320 | 28.89° C | 23% | 1020.2 hPa | - | - | - | - |
| 1777736422 | 31.67° C | 20% | 1020.3 hPa | - | - | - | - |
| 1777735523 | 32.78° C | 19% | 1020.5 hPa | - | - | - | - |
| 1777734629 | 30° C | 22% | 1020.7 hPa | - | - | - | - |
| 1777733726 | 36.11° C | 17% | 1020.8 hPa | - | - | - | - |
| 1777732827 | 33.89° C | 18% | 1020.9 hPa | - | - | - | - |
| 1777731927 | 34.44° C | 19% | 1021.1 hPa | - | - | - | - |
| 1777731029 | 32.78° C | 19% | 1021.3 hPa | - | - | - | - |
| 1777730130 | 35.56° C | 17% | 1021.5 hPa | - | - | - | - |
| 1777729231 | 33.89° C | 18% | 1021.6 hPa | - | - | - | - |
| 1777728332 | 35.56° C | 18% | 1021.7 hPa | - | - | - | - |
| 1777727566 | 33.33° C | 19% | 1022 hPa | - | - | - | - |
| 1777726662 | 35.56° C | 18% | 1022.2 hPa | - | - | - | - |
| 1777725763 | 34.44° C | 18% | 1022.4 hPa | - | - | - | - |
| 1777724864 | 37.78° C | 16% | 1022.6 hPa | - | - | - | - |
| 1777723964 | 32.22° C | 20% | 1022.9 hPa | - | - | - | - |
| 1777723069 | 35.56° C | 18% | 1023.1 hPa | - | - | - | - |
* Rain since midnight (hover to see other rain measurements)
** Current wind speed in m/s (hover to see current wind gust speed)